createdAt,value
2023-04-15T00:01:41.404Z,100.00
2023-04-15T00:04:09.438Z,100.00
2023-04-15T00:06:38.038Z,100.00
2023-04-15T00:09:05.975Z,100.00
2023-04-15T00:11:32.818Z,100.00
2023-04-15T00:14:00.322Z,100.00
2023-04-15T00:16:27.134Z,100.00
2023-04-15T00:18:55.955Z,100.00
2023-04-15T00:21:22.666Z,100.00
2023-04-15T00:23:50.306Z,100.00
2023-04-15T00:26:17.979Z,100.00
2023-04-15T00:28:47.290Z,100.00
2023-04-15T00:31:14.936Z,100.00
2023-04-15T00:33:41.755Z,100.00
2023-04-15T00:36:08.501Z,100.00
2023-04-15T00:38:38.669Z,100.00
2023-04-15T00:41:05.472Z,100.00
2023-04-15T00:43:32.233Z,100.00
2023-04-15T00:46:01.028Z,100.00
2023-04-15T00:48:28.547Z,100.00
2023-04-15T00:50:55.304Z,100.00
2023-04-15T00:53:22.891Z,100.00
2023-04-15T00:55:49.996Z,100.00
2023-04-15T00:58:16.993Z,100.00
2023-04-15T01:00:44.060Z,100.00
2023-04-15T01:03:11.096Z,100.00
2023-04-15T01:05:38.839Z,100.00
2023-04-15T01:08:07.951Z,100.00
2023-04-15T01:10:35.261Z,100.00
2023-04-15T01:13:03.313Z,100.00
2023-04-15T01:15:30.537Z,100.00
2023-04-15T01:18:02.598Z,100.00
2023-04-15T01:20:34.023Z,100.00
2023-04-15T01:23:01.307Z,100.00
2023-04-15T01:25:34.928Z,100.00
2023-04-15T01:28:01.856Z,100.00
2023-04-15T01:30:28.728Z,100.00
2023-04-15T01:32:57.439Z,100.00
2023-04-15T01:35:24.377Z,100.00
2023-04-15T01:37:51.826Z,100.00
2023-04-15T01:40:18.706Z,100.00
2023-04-15T01:42:45.445Z,100.00
2023-04-15T01:45:14.098Z,100.00
2023-04-15T01:47:41.099Z,100.00
2023-04-15T01:50:10.654Z,100.00
2023-04-15T01:52:37.554Z,100.00
2023-04-15T01:55:04.744Z,100.00
2023-04-15T01:57:31.711Z,100.00
2023-04-15T01:59:58.515Z,100.00
2023-04-15T02:02:25.450Z,100.00
2023-04-15T02:04:57.062Z,100.00
2023-04-15T02:07:25.479Z,100.00
2023-04-15T02:09:52.366Z,100.00
2023-04-15T02:12:21.075Z,100.00
2023-04-15T02:14:48.455Z,100.00
2023-04-15T02:17:15.822Z,100.00
2023-04-15T02:19:43.505Z,100.00
2023-04-15T02:22:10.238Z,100.00
2023-04-15T02:24:37.428Z,100.00
2023-04-15T02:27:04.255Z,100.00
2023-04-15T02:29:32.369Z,100.00
2023-04-15T02:32:01.210Z,100.00
2023-04-15T02:34:28.153Z,100.00
2023-04-15T02:36:57.639Z,100.00
2023-04-15T02:39:24.789Z,100.00
2023-04-15T02:41:51.552Z,100.00
2023-04-15T02:44:21.217Z,100.00
2023-04-15T02:46:50.024Z,100.00
2023-04-15T02:49:16.913Z,100.00
2023-04-15T02:51:43.849Z,100.00
2023-04-15T02:54:10.599Z,100.00
2023-04-15T02:56:37.449Z,100.00
2023-04-15T02:59:05.405Z,100.00
2023-04-15T03:01:32.197Z,100.00
2023-04-15T03:04:00.144Z,100.00
2023-04-15T03:06:27.045Z,100.00
2023-04-15T03:08:53.928Z,100.00
2023-04-15T03:11:22.117Z,100.00
2023-04-15T03:13:49.696Z,100.00
2023-04-15T03:16:36.848Z,100.00
2023-04-15T03:19:04.369Z,100.00
2023-04-15T03:21:33.923Z,100.00
2023-04-15T03:24:00.879Z,100.00
2023-04-15T03:26:32.343Z,100.00
2023-04-15T03:29:09.951Z,100.00
2023-04-15T03:31:37.605Z,100.00
2023-04-15T03:34:05.424Z,100.00
2023-04-15T03:36:32.851Z,100.00
2023-04-15T03:39:02.162Z,100.00
2023-04-15T03:41:29.531Z,100.00
2023-04-15T03:43:56.714Z,100.00
2023-04-15T03:46:23.510Z,100.00
2023-04-15T03:48:50.281Z,100.00
2023-04-15T03:51:17.027Z,100.00
2023-04-15T03:53:45.384Z,100.00
2023-04-15T03:56:12.114Z,100.00
2023-04-15T03:58:39.329Z,100.00
2023-04-15T04:01:06.162Z,100.00
2023-04-15T04:03:33.612Z,100.00
2023-04-15T04:06:02.325Z,100.00
2023-04-15T04:08:29.036Z,100.00
2023-04-15T04:10:55.943Z,100.00
2023-04-15T04:13:22.642Z,100.00
2023-04-15T04:15:49.610Z,100.00
2023-04-15T04:18:16.335Z,100.00
2023-04-15T04:20:43.216Z,100.00
2023-04-15T04:23:10.054Z,100.00
2023-04-15T04:25:41.355Z,100.00
2023-04-15T04:28:08.225Z,100.00
2023-04-15T04:30:36.444Z,100.00
2023-04-15T04:33:03.417Z,100.00
2023-04-15T04:35:31.376Z,100.00
2023-04-15T04:37:58.152Z,100.00
2023-04-15T04:40:24.936Z,100.00
2023-04-15T04:42:51.726Z,100.00
2023-04-15T04:45:18.592Z,100.00
2023-04-15T04:47:45.609Z,100.00
2023-04-15T04:50:12.576Z,100.00
2023-04-15T04:52:41.055Z,100.00
2023-04-15T04:55:08.137Z,100.00
2023-04-15T04:57:34.972Z,100.00
2023-04-15T05:00:05.967Z,100.00
2023-04-15T05:02:34.985Z,100.00
2023-04-15T05:05:02.957Z,100.00
2023-04-15T05:07:29.724Z,100.00
2023-04-15T05:09:56.954Z,100.00
2023-04-15T05:12:23.663Z,100.00
2023-04-15T05:14:50.482Z,100.00
2023-04-15T05:17:17.407Z,100.00
2023-04-15T05:19:44.164Z,100.00
2023-04-15T05:22:11.099Z,100.00
2023-04-15T05:24:37.862Z,100.00
2023-04-15T05:27:08.557Z,100.00
2023-04-15T05:29:35.283Z,100.00
2023-04-15T05:32:02.134Z,100.00
2023-04-15T05:34:32.545Z,100.00
2023-04-15T05:36:59.363Z,100.00
2023-04-15T05:39:26.933Z,100.00
2023-04-15T05:42:19.034Z,100.00
2023-04-15T05:44:46.997Z,100.00
2023-04-15T05:47:13.883Z,100.00
2023-04-15T05:49:40.989Z,100.00
2023-04-15T05:52:09.404Z,100.00
2023-04-15T05:54:36.416Z,100.00
2023-04-15T05:57:03.376Z,100.00
2023-04-15T05:59:30.190Z,100.00
2023-04-15T06:01:57.160Z,100.00
2023-04-15T06:04:24.506Z,100.00
2023-04-15T06:06:51.420Z,100.00
2023-04-15T06:09:18.231Z,100.00
2023-04-15T06:11:45.970Z,100.00
2023-04-15T06:14:12.747Z,100.00
2023-04-15T06:16:39.646Z,100.00
2023-04-15T06:19:06.543Z,100.00
2023-04-15T06:21:33.586Z,100.00
2023-04-15T06:24:00.288Z,100.00
2023-04-15T06:26:27.397Z,100.00
2023-04-15T06:28:54.295Z,100.00
2023-04-15T06:31:21.409Z,100.00
2023-04-15T06:33:48.390Z,100.00
2023-04-15T06:36:15.430Z,100.00
2023-04-15T06:38:42.364Z,100.00
2023-04-15T06:41:12.954Z,100.00
2023-04-15T06:44:05.202Z,100.00
2023-04-15T06:46:32.562Z,100.00
2023-04-15T06:48:59.381Z,100.00
2023-04-15T06:51:26.819Z,100.00
2023-04-15T06:53:53.738Z,100.00
2023-04-15T06:56:21.504Z,100.00
2023-04-15T06:58:48.277Z,100.00
2023-04-15T07:01:15.058Z,100.00
2023-04-15T07:03:41.952Z,100.00
2023-04-15T07:06:08.973Z,100.00
2023-04-15T07:08:35.700Z,100.00
2023-04-15T07:11:04.524Z,100.00
2023-04-15T07:13:32.698Z,100.00
2023-04-15T07:15:59.474Z,100.00
2023-04-15T07:18:26.312Z,100.00
2023-04-15T07:20:53.145Z,100.00
2023-04-15T07:23:19.879Z,100.00
2023-04-15T07:25:47.995Z,100.00
2023-04-15T07:28:14.704Z,100.00
2023-04-15T07:30:41.697Z,100.00
2023-04-15T07:33:08.682Z,100.00
2023-04-15T07:35:36.406Z,100.00
2023-04-15T07:38:03.241Z,100.00
2023-04-15T07:40:30.174Z,100.00
2023-04-15T07:42:58.420Z,100.00
2023-04-15T07:45:33.143Z,100.00
2023-04-15T07:48:04.035Z,100.00
2023-04-15T07:50:30.842Z,100.00
2023-04-15T07:52:58.524Z,100.00
2023-04-15T07:55:26.210Z,100.00
2023-04-15T07:57:55.457Z,100.00
2023-04-15T08:00:22.276Z,100.00
2023-04-15T08:02:49.713Z,100.00
2023-04-15T08:05:16.752Z,100.00
2023-04-15T08:07:43.889Z,100.00
2023-04-15T08:10:10.867Z,100.00
2023-04-15T08:12:37.862Z,100.00
2023-04-15T08:15:05.102Z,100.00
2023-04-15T08:17:31.898Z,100.00
2023-04-15T08:19:59.934Z,100.00
2023-04-15T08:22:27.448Z,100.00
2023-04-15T08:24:54.143Z,100.00
2023-04-15T08:27:21.083Z,100.00
2023-04-15T08:29:47.805Z,100.00
2023-04-15T08:32:14.656Z,100.00
2023-04-15T08:34:41.377Z,100.00
2023-04-15T08:37:08.178Z,100.00
2023-04-15T08:39:34.994Z,100.00
2023-04-15T08:42:03.163Z,100.00
2023-04-15T08:44:33.510Z,100.00
2023-04-15T08:47:07.773Z,100.00
2023-04-15T08:52:31.911Z,100.00
2023-04-15T08:54:59.989Z,100.00
2023-04-15T08:57:28.895Z,100.00
2023-04-15T08:59:58.953Z,100.00
2023-04-15T09:02:26.945Z,100.00
2023-04-15T09:04:55.189Z,99.95
2023-04-15T09:07:22.040Z,100.00
2023-04-15T09:09:48.989Z,99.44
2023-04-15T09:12:17.106Z,100.00
2023-04-15T09:14:46.344Z,100.00
2023-04-15T09:17:13.149Z,100.00
2023-04-15T09:19:41.905Z,100.00
2023-04-15T09:22:09.572Z,100.00
2023-04-15T09:24:40.951Z,100.00
2023-04-15T09:27:08.501Z,100.00
2023-04-15T09:29:35.325Z,100.00
2023-04-15T09:32:17.027Z,100.00
2023-04-15T09:34:43.905Z,100.00
2023-04-15T09:37:10.816Z,100.00
2023-04-15T09:39:52.876Z,100.00
2023-04-15T09:42:20.050Z,100.00
2023-04-15T09:44:47.341Z,100.00
2023-04-15T09:47:33.019Z,100.00
2023-04-15T09:50:01.662Z,100.00
2023-04-15T09:52:29.347Z,100.00
2023-04-15T09:55:00.287Z,100.00
2023-04-15T09:57:38.006Z,100.00
2023-04-15T10:00:06.640Z,100.00
2023-04-15T10:02:33.782Z,100.00
2023-04-15T10:05:01.856Z,100.00
2023-04-15T10:07:29.558Z,100.00
2023-04-15T10:09:59.003Z,100.00
2023-04-15T10:12:27.288Z,100.00
2023-04-15T10:15:04.040Z,100.00
2023-04-15T10:17:33.469Z,99.36
2023-04-15T10:20:02.200Z,97.60
2023-04-15T10:22:30.184Z,100.00
2023-04-15T10:24:57.206Z,99.44
2023-04-15T10:27:24.364Z,99.16
2023-04-15T10:29:55.922Z,98.90
2023-04-15T10:32:24.473Z,97.82
2023-04-15T10:34:54.320Z,99.42
2023-04-15T10:37:33.472Z,97.75
2023-04-15T10:40:00.201Z,98.50
2023-04-15T10:42:34.845Z,98.58
2023-04-15T10:45:01.689Z,97.89
2023-04-15T10:47:28.510Z,95.54
2023-04-15T10:50:01.581Z,98.05
2023-04-15T10:52:29.623Z,98.00
2023-04-15T10:55:27.093Z,95.62
2023-04-15T10:57:58.219Z,95.63
2023-04-15T11:00:27.979Z,94.71
2023-04-15T11:03:00.284Z,96.41
2023-04-15T11:05:39.972Z,97.02
2023-04-15T11:08:07.034Z,96.34
2023-04-15T11:10:33.738Z,96.30
2023-04-15T11:13:04.892Z,96.37
2023-04-15T11:15:42.895Z,96.46
2023-04-15T11:18:12.648Z,96.85
2023-04-15T11:20:41.325Z,97.08
2023-04-15T11:23:15.205Z,94.15
2023-04-15T11:25:43.606Z,97.35
2023-04-15T11:28:12.227Z,95.23
2023-04-15T11:30:40.301Z,96.70
2023-04-15T11:33:09.020Z,95.37
2023-04-15T11:35:36.554Z,94.12
2023-04-15T11:38:11.116Z,96.31
2023-04-15T11:40:38.932Z,95.51
2023-04-15T11:43:22.924Z,92.41
2023-04-15T11:45:59.107Z,92.94
2023-04-15T11:48:28.188Z,95.22
2023-04-15T11:51:02.073Z,90.63
2023-04-15T11:53:49.982Z,91.06
2023-04-15T11:56:19.456Z,90.15
2023-04-15T11:58:47.027Z,91.29
2023-04-15T12:01:14.350Z,90.98
2023-04-15T12:03:44.099Z,93.08
2023-04-15T12:06:17.115Z,93.69
2023-04-15T12:09:06.822Z,92.32
2023-04-15T12:11:44.622Z,92.01
2023-04-15T12:14:25.486Z,93.75
2023-04-15T12:17:05.100Z,92.86
2023-04-15T12:19:39.910Z,93.66
2023-04-15T12:22:17.915Z,91.71
2023-04-15T12:24:46.332Z,87.78
2023-04-15T12:27:14.916Z,84.84
2023-04-15T12:29:43.199Z,84.30
2023-04-15T12:32:15.492Z,86.87
2023-04-15T12:34:51.154Z,85.95
2023-04-15T12:37:21.949Z,84.81
2023-04-15T12:39:50.260Z,86.88
2023-04-15T12:42:18.706Z,86.10
2023-04-15T12:44:49.381Z,85.82
2023-04-15T12:47:16.660Z,84.73
2023-04-15T12:49:43.413Z,86.43
2023-04-15T12:52:10.425Z,88.71
2023-04-15T12:54:39.755Z,87.51
2023-04-15T12:57:07.679Z,85.86
2023-04-15T12:59:35.707Z,89.32
2023-04-15T13:02:02.695Z,85.19
2023-04-15T13:04:31.524Z,87.98
2023-04-15T13:06:58.444Z,88.86
2023-04-15T13:09:25.415Z,90.20
2023-04-15T13:11:53.040Z,86.36
2023-04-15T13:14:20.403Z,85.75
2023-04-15T13:16:47.117Z,83.37
2023-04-15T13:19:39.146Z,86.90
2023-04-15T13:22:07.639Z,87.18
2023-04-15T13:24:38.936Z,84.00
2023-04-15T13:27:06.410Z,84.87
2023-04-15T13:33:17.977Z,87.12
2023-04-15T13:35:47.936Z,86.92
2023-04-15T13:38:15.993Z,84.52
2023-04-15T13:41:07.876Z,82.51
2023-04-15T13:43:34.786Z,83.47
2023-04-15T13:46:01.697Z,83.01
2023-04-15T13:48:29.450Z,84.01
2023-04-15T13:50:56.303Z,86.64
2023-04-15T13:53:33.874Z,85.58
2023-04-15T13:56:09.073Z,83.65
2023-04-15T13:58:41.386Z,82.36
2023-04-15T14:01:08.385Z,83.85
2023-04-15T14:03:36.177Z,82.76
2023-04-15T14:06:03.641Z,83.29
2023-04-15T14:08:31.402Z,83.62
2023-04-15T14:10:58.513Z,83.47
2023-04-15T14:13:25.373Z,81.18
2023-04-15T14:15:52.492Z,82.49
2023-04-15T14:18:19.433Z,82.11
2023-04-15T14:20:46.719Z,81.15
2023-04-15T14:23:13.802Z,80.39
2023-04-15T14:25:41.579Z,80.78
2023-04-15T14:28:08.456Z,83.06
2023-04-15T14:30:35.680Z,81.66
2023-04-15T14:35:55.261Z,80.86
2023-04-15T14:38:22.128Z,80.68
2023-04-15T14:40:49.620Z,79.61
2023-04-15T14:43:17.308Z,79.40
2023-04-15T14:45:45.427Z,80.64
2023-04-15T14:48:13.583Z,81.85
2023-04-15T14:50:40.587Z,80.20
2023-04-15T14:53:07.708Z,81.12
2023-04-15T14:55:34.957Z,80.10
2023-04-15T14:58:01.847Z,80.42
2023-04-15T15:00:28.707Z,78.76
2023-04-15T15:02:55.683Z,79.62
2023-04-15T15:05:22.874Z,80.30
2023-04-15T15:07:50.247Z,79.27
2023-04-15T15:10:17.355Z,80.02
2023-04-15T15:15:57.973Z,82.82
2023-04-15T15:18:25.912Z,81.62
2023-04-15T15:20:52.986Z,81.81
2023-04-15T15:23:19.739Z,83.86
2023-04-15T15:25:46.743Z,83.44
2023-04-15T15:28:13.873Z,83.41
2023-04-15T15:30:40.679Z,85.33
2023-04-15T15:33:07.611Z,82.90
2023-04-15T15:35:35.075Z,83.23
2023-04-15T15:38:02.073Z,82.44
2023-04-15T15:40:28.875Z,81.33
2023-04-15T15:42:55.906Z,81.73
2023-04-15T15:45:22.828Z,81.27
2023-04-15T15:47:54.101Z,81.58
2023-04-15T15:50:21.533Z,82.50
2023-04-15T15:52:48.685Z,81.16
2023-04-15T15:55:16.465Z,81.88
2023-04-15T15:57:43.267Z,81.78
2023-04-15T16:00:12.416Z,81.63
2023-04-15T16:05:10.936Z,80.51
2023-04-15T16:07:37.772Z,80.07
2023-04-15T16:10:05.206Z,79.62
2023-04-15T16:12:33.847Z,79.84
2023-04-15T16:15:01.706Z,80.67
2023-04-15T16:17:28.713Z,80.57
2023-04-15T16:19:59.424Z,80.58
2023-04-15T16:22:27.852Z,81.48
2023-04-15T16:24:55.635Z,80.83
2023-04-15T16:27:22.566Z,79.66
2023-04-15T16:29:49.579Z,80.18
2023-04-15T16:32:16.982Z,81.91
2023-04-15T16:34:43.748Z,79.56
2023-04-15T16:37:11.687Z,81.04
2023-04-15T16:39:38.832Z,81.07
2023-04-15T16:42:06.172Z,81.21
2023-04-15T16:44:34.333Z,80.40
2023-04-15T16:47:01.285Z,80.43
2023-04-15T16:49:28.284Z,81.18
2023-04-15T16:51:55.602Z,81.11
2023-04-15T16:54:22.454Z,79.91
2023-04-15T16:56:49.651Z,78.61
2023-04-15T16:59:16.742Z,80.90
2023-04-15T17:01:43.771Z,79.10
2023-04-15T17:04:11.119Z,79.24
2023-04-15T17:06:39.615Z,80.56
2023-04-15T17:09:06.595Z,79.76
2023-04-15T17:11:35.123Z,79.59
2023-04-15T17:14:05.058Z,79.06
2023-04-15T17:16:33.911Z,80.69
2023-04-15T17:19:01.242Z,82.03
2023-04-15T17:21:29.896Z,80.13
2023-04-15T17:23:57.084Z,80.14
2023-04-15T17:26:24.591Z,80.84
2023-04-15T17:28:51.487Z,80.54
2023-04-15T17:31:18.625Z,81.61
2023-04-15T17:34:00.518Z,81.50
2023-04-15T17:36:34.716Z,82.23
2023-04-15T17:39:01.670Z,82.45
2023-04-15T17:41:29.102Z,83.74
2023-04-15T17:43:57.144Z,82.58
2023-04-15T17:46:24.444Z,82.03
2023-04-15T17:48:52.015Z,84.90
2023-04-15T17:51:19.094Z,86.09
2023-04-15T17:53:46.815Z,84.69
2023-04-15T17:56:14.325Z,86.79
2023-04-15T17:58:44.814Z,86.19
2023-04-15T18:01:12.241Z,87.06
2023-04-15T18:03:40.537Z,88.17
2023-04-15T18:06:08.441Z,89.53
2023-04-15T18:08:37.696Z,89.63
2023-04-15T18:11:04.950Z,87.75
2023-04-15T18:13:37.284Z,89.00
2023-04-15T18:16:05.803Z,87.85
2023-04-15T18:18:33.767Z,89.21
2023-04-15T18:21:01.342Z,89.41
2023-04-15T18:23:28.585Z,90.10
2023-04-15T18:25:55.967Z,90.59
2023-04-15T18:28:23.090Z,90.82
2023-04-15T18:30:50.867Z,91.47
2023-04-15T18:33:18.375Z,91.39
2023-04-15T18:35:45.370Z,91.98
2023-04-15T18:38:13.503Z,92.38
2023-04-15T18:40:41.871Z,92.55
2023-04-15T18:43:09.210Z,92.66
2023-04-15T18:45:40.832Z,92.78
2023-04-15T18:48:08.916Z,92.89
2023-04-15T18:50:35.812Z,93.40
2023-04-15T18:53:03.403Z,93.88
2023-04-15T18:55:33.185Z,93.58
2023-04-15T18:58:06.352Z,93.41
2023-04-15T19:00:36.979Z,91.72
2023-04-15T19:03:04.935Z,90.89
2023-04-15T19:05:34.078Z,88.85
2023-04-15T19:08:02.231Z,87.88
2023-04-15T19:10:30.016Z,87.19
2023-04-15T19:12:59.266Z,86.77
2023-04-15T19:15:29.751Z,86.73
2023-04-15T19:17:58.705Z,86.70
2023-04-15T19:20:52.106Z,86.91
2023-04-15T19:23:21.610Z,86.90
2023-04-15T19:25:50.197Z,86.86
2023-04-15T19:28:18.368Z,87.23
2023-04-15T19:30:46.865Z,87.04
2023-04-15T19:33:16.808Z,87.38
2023-04-15T19:35:45.053Z,87.61
2023-04-15T19:38:12.736Z,88.28
2023-04-15T19:43:37.060Z,90.62
2023-04-15T19:46:04.673Z,90.92
2023-04-15T19:48:31.564Z,91.75
2023-04-15T19:51:00.648Z,92.28
2023-04-15T19:53:30.199Z,92.79
2023-04-15T19:55:59.429Z,93.59
2023-04-15T19:58:26.908Z,93.58
2023-04-15T20:00:54.794Z,93.86
2023-04-15T20:03:22.564Z,93.41
2023-04-15T20:05:51.205Z,93.05
2023-04-15T20:08:19.280Z,93.29
2023-04-15T20:10:47.146Z,93.56
2023-04-15T20:13:14.820Z,93.99
2023-04-15T20:15:44.517Z,94.71
2023-04-15T20:18:16.609Z,94.46
2023-04-15T20:20:50.957Z,94.94
2023-04-15T20:23:49.835Z,94.81
2023-04-15T20:26:20.890Z,95.21
2023-04-15T20:28:49.764Z,95.34
2023-04-15T20:31:17.192Z,95.45
2023-04-15T20:33:48.733Z,95.04
2023-04-15T20:36:18.342Z,95.04
2023-04-15T20:38:45.741Z,95.21
2023-04-15T20:41:13.526Z,95.17
2023-04-15T20:43:43.989Z,95.36
2023-04-15T20:46:20.402Z,96.07
2023-04-15T20:48:48.777Z,95.96
2023-04-15T20:51:15.859Z,96.66
2023-04-15T20:53:42.713Z,96.52
2023-04-15T20:56:09.675Z,96.07
2023-04-15T20:58:36.475Z,96.54
2023-04-15T21:01:05.110Z,96.48
2023-04-15T21:03:32.279Z,96.22
2023-04-15T21:06:02.346Z,96.64
2023-04-15T21:08:30.651Z,96.83
2023-04-15T21:10:58.307Z,96.88
2023-04-15T21:13:26.175Z,97.34
2023-04-15T21:15:54.556Z,97.93
2023-04-15T21:18:23.441Z,98.84
2023-04-15T21:21:00.668Z,99.08
2023-04-15T21:23:33.293Z,98.47
2023-04-15T21:26:00.991Z,98.45
2023-04-15T21:28:28.649Z,99.09
2023-04-15T21:30:56.686Z,98.78
2023-04-15T21:33:24.137Z,99.33
2023-04-15T21:35:51.594Z,99.31
2023-04-15T21:38:18.451Z,100.00
2023-04-15T21:40:45.341Z,99.56
2023-04-15T21:43:13.508Z,100.00
2023-04-15T21:45:40.505Z,100.00
2023-04-15T21:48:08.521Z,100.00
2023-04-15T21:50:37.174Z,100.00
2023-04-15T21:53:05.128Z,100.00
2023-04-15T21:55:32.080Z,100.00
2023-04-15T21:57:59.012Z,100.00
2023-04-15T22:00:26.468Z,100.00
2023-04-15T22:02:53.525Z,100.00
2023-04-15T22:05:20.504Z,100.00
2023-04-15T22:07:47.341Z,100.00
2023-04-15T22:10:14.188Z,100.00
2023-04-15T22:12:41.488Z,100.00
2023-04-15T22:15:08.750Z,99.96
2023-04-15T22:17:35.615Z,99.56
2023-04-15T22:20:04.099Z,99.19
2023-04-15T22:22:44.173Z,99.88
2023-04-15T22:25:12.348Z,99.37
2023-04-15T22:27:39.489Z,99.57
2023-04-15T22:30:06.996Z,99.64
2023-04-15T22:32:34.500Z,99.25
2023-04-15T22:35:01.727Z,99.58
2023-04-15T22:37:28.587Z,100.00
2023-04-15T22:39:55.322Z,100.00
2023-04-15T22:42:23.154Z,100.00
2023-04-15T22:44:51.654Z,100.00
2023-04-15T22:47:19.466Z,99.75
2023-04-15T22:49:46.934Z,99.57
2023-04-15T22:52:23.299Z,100.00
2023-04-15T22:54:56.615Z,100.00
2023-04-15T23:00:39.358Z,100.00
2023-04-15T23:03:06.405Z,100.00
2023-04-15T23:05:34.345Z,100.00
2023-04-15T23:08:01.239Z,100.00
2023-04-15T23:10:31.669Z,99.63
2023-04-15T23:12:58.544Z,97.01
2023-04-15T23:15:25.703Z,94.53
2023-04-15T23:17:54.077Z,93.28
2023-04-15T23:20:21.551Z,92.61
2023-04-15T23:22:48.298Z,92.45
2023-04-15T23:25:16.058Z,92.29
2023-04-15T23:27:42.775Z,92.36
2023-04-15T23:30:09.665Z,92.52
2023-04-15T23:32:36.467Z,92.32
2023-04-15T23:35:03.576Z,91.97
2023-04-15T23:37:30.979Z,91.70
2023-04-15T23:39:57.783Z,91.33
2023-04-15T23:42:24.551Z,90.95
2023-04-15T23:44:51.636Z,91.18
2023-04-15T23:47:18.587Z,91.09
2023-04-15T23:49:46.164Z,91.10
2023-04-15T23:52:12.954Z,91.11
2023-04-15T23:54:40.514Z,91.14
2023-04-15T23:57:07.368Z,92.25
2023-04-15T23:59:34.566Z,93.25
